sensor_id;sensor_type;location;lat;lon;timestamp;P1;durP1;ratioP1;P2;durP2;ratioP2
22715;SDS011;11525;51.152;4.456;2023-05-10T00:00:12;23.40;;;13.30;;
22715;SDS011;11525;51.152;4.456;2023-05-10T00:02:38;25.20;;;13.38;;
22715;SDS011;11525;51.152;4.456;2023-05-10T00:05:05;27.23;;;14.10;;
22715;SDS011;11525;51.152;4.456;2023-05-10T00:07:31;24.27;;;14.07;;
22715;SDS011;11525;51.152;4.456;2023-05-10T00:09:57;21.42;;;13.45;;
22715;SDS011;11525;51.152;4.456;2023-05-10T00:12:22;25.00;;;15.15;;
22715;SDS011;11525;51.152;4.456;2023-05-10T00:14:48;24.55;;;13.13;;
22715;SDS011;11525;51.152;4.456;2023-05-10T00:17:14;24.58;;;14.55;;
22715;SDS011;11525;51.152;4.456;2023-05-10T00:19:40;24.50;;;13.73;;
22715;SDS011;11525;51.152;4.456;2023-05-10T00:22:05;22.45;;;12.85;;
22715;SDS011;11525;51.152;4.456;2023-05-10T00:24:31;25.20;;;14.05;;
22715;SDS011;11525;51.152;4.456;2023-05-10T00:26:57;24.75;;;13.95;;
22715;SDS011;11525;51.152;4.456;2023-05-10T00:29:22;22.15;;;12.20;;
22715;SDS011;11525;51.152;4.456;2023-05-10T00:31:48;22.40;;;14.80;;
22715;SDS011;11525;51.152;4.456;2023-05-10T00:34:14;23.90;;;14.10;;
22715;SDS011;11525;51.152;4.456;2023-05-10T00:36:40;21.75;;;11.88;;
22715;SDS011;11525;51.152;4.456;2023-05-10T00:39:05;24.50;;;13.13;;
22715;SDS011;11525;51.152;4.456;2023-05-10T00:41:31;23.80;;;13.27;;
22715;SDS011;11525;51.152;4.456;2023-05-10T00:43:57;25.20;;;14.98;;
22715;SDS011;11525;51.152;4.456;2023-05-10T00:46:23;23.92;;;14.13;;
22715;SDS011;11525;51.152;4.456;2023-05-10T00:48:50;24.63;;;14.80;;
22715;SDS011;11525;51.152;4.456;2023-05-10T00:51:17;26.10;;;14.38;;
22715;SDS011;11525;51.152;4.456;2023-05-10T00:53:43;22.70;;;11.57;;
22715;SDS011;11525;51.152;4.456;2023-05-10T00:56:13;24.48;;;12.70;;
22715;SDS011;11525;51.152;4.456;2023-05-10T00:58:42;25.75;;;13.98;;
22715;SDS011;11525;51.152;4.456;2023-05-10T01:01:08;23.95;;;12.20;;
22715;SDS011;11525;51.152;4.456;2023-05-10T01:03:35;27.77;;;15.07;;
22715;SDS011;11525;51.152;4.456;2023-05-10T01:06:01;28.35;;;15.80;;
22715;SDS011;11525;51.152;4.456;2023-05-10T01:08:28;29.98;;;16.13;;
22715;SDS011;11525;51.152;4.456;2023-05-10T01:10:54;28.23;;;13.50;;
22715;SDS011;11525;51.152;4.456;2023-05-10T01:15:58;31.02;;;16.08;;
22715;SDS011;11525;51.152;4.456;2023-05-10T01:18:24;26.73;;;16.00;;
22715;SDS011;11525;51.152;4.456;2023-05-10T01:20:58;28.83;;;17.25;;
22715;SDS011;11525;51.152;4.456;2023-05-10T01:34:59;30.58;;;16.80;;
22715;SDS011;11525;51.152;4.456;2023-05-10T01:37:38;34.72;;;18.38;;
22715;SDS011;11525;51.152;4.456;2023-05-10T01:40:28;33.83;;;16.73;;
22715;SDS011;11525;51.152;4.456;2023-05-10T01:43:02;26.48;;;16.92;;
22715;SDS011;11525;51.152;4.456;2023-05-10T01:45:39;33.25;;;17.77;;
22715;SDS011;11525;51.152;4.456;2023-05-10T01:48:15;27.55;;;14.27;;
22715;SDS011;11525;51.152;4.456;2023-05-10T01:50:43;26.13;;;15.25;;
22715;SDS011;11525;51.152;4.456;2023-05-10T01:53:12;35.88;;;18.67;;
22715;SDS011;11525;51.152;4.456;2023-05-10T01:55:43;28.27;;;16.38;;
22715;SDS011;11525;51.152;4.456;2023-05-10T01:58:17;30.20;;;17.02;;
22715;SDS011;11525;51.152;4.456;2023-05-10T02:00:47;33.28;;;16.27;;
22715;SDS011;11525;51.152;4.456;2023-05-10T02:03:15;26.55;;;16.83;;
22715;SDS011;11525;51.152;4.456;2023-05-10T02:05:46;25.95;;;17.40;;
22715;SDS011;11525;51.152;4.456;2023-05-10T02:08:14;27.45;;;17.98;;
22715;SDS011;11525;51.152;4.456;2023-05-10T02:10:42;24.65;;;15.00;;
22715;SDS011;11525;51.152;4.456;2023-05-10T02:13:10;24.05;;;17.95;;
22715;SDS011;11525;51.152;4.456;2023-05-10T02:15:40;26.83;;;15.10;;
22715;SDS011;11525;51.152;4.456;2023-05-10T02:18:07;25.67;;;14.40;;
22715;SDS011;11525;51.152;4.456;2023-05-10T02:20:35;28.60;;;15.68;;
22715;SDS011;11525;51.152;4.456;2023-05-10T02:23:03;26.50;;;14.13;;
22715;SDS011;11525;51.152;4.456;2023-05-10T02:25:30;28.25;;;17.00;;
22715;SDS011;11525;51.152;4.456;2023-05-10T02:27:59;22.73;;;14.57;;
22715;SDS011;11525;51.152;4.456;2023-05-10T02:30:27;31.92;;;18.25;;
22715;SDS011;11525;51.152;4.456;2023-05-10T02:32:55;27.63;;;15.98;;
22715;SDS011;11525;51.152;4.456;2023-05-10T02:35:22;27.20;;;15.40;;
22715;SDS011;11525;51.152;4.456;2023-05-10T02:37:49;33.20;;;17.35;;
22715;SDS011;11525;51.152;4.456;2023-05-10T02:40:16;29.40;;;17.15;;
22715;SDS011;11525;51.152;4.456;2023-05-10T02:42:43;25.92;;;16.55;;
22715;SDS011;11525;51.152;4.456;2023-05-10T02:45:11;25.90;;;16.52;;
22715;SDS011;11525;51.152;4.456;2023-05-10T02:47:39;30.42;;;17.38;;
22715;SDS011;11525;51.152;4.456;2023-05-10T02:50:05;33.45;;;21.30;;
22715;SDS011;11525;51.152;4.456;2023-05-10T02:52:50;29.55;;;20.48;;
22715;SDS011;11525;51.152;4.456;2023-05-10T02:55:19;35.25;;;22.58;;
22715;SDS011;11525;51.152;4.456;2023-05-10T02:57:55;42.10;;;23.70;;
22715;SDS011;11525;51.152;4.456;2023-05-10T03:00:24;40.95;;;21.38;;
22715;SDS011;11525;51.152;4.456;2023-05-10T03:02:50;41.17;;;22.83;;
22715;SDS011;11525;51.152;4.456;2023-05-10T03:05:15;48.25;;;29.02;;
22715;SDS011;11525;51.152;4.456;2023-05-10T03:07:41;45.17;;;27.55;;
22715;SDS011;11525;51.152;4.456;2023-05-10T03:10:07;45.88;;;28.48;;
22715;SDS011;11525;51.152;4.456;2023-05-10T03:12:38;42.08;;;26.85;;
22715;SDS011;11525;51.152;4.456;2023-05-10T03:18:19;47.53;;;28.10;;
22715;SDS011;11525;51.152;4.456;2023-05-10T03:20:48;53.25;;;30.08;;
22715;SDS011;11525;51.152;4.456;2023-05-10T03:23:23;59.53;;;35.30;;
22715;SDS011;11525;51.152;4.456;2023-05-10T03:25:52;67.00;;;37.70;;
22715;SDS011;11525;51.152;4.456;2023-05-10T03:28:18;70.20;;;39.60;;
22715;SDS011;11525;51.152;4.456;2023-05-10T03:30:46;81.13;;;41.78;;
22715;SDS011;11525;51.152;4.456;2023-05-10T03:33:12;117.45;;;59.97;;
22715;SDS011;11525;51.152;4.456;2023-05-10T03:35:39;118.10;;;61.63;;
22715;SDS011;11525;51.152;4.456;2023-05-10T03:38:04;122.72;;;53.05;;
22715;SDS011;11525;51.152;4.456;2023-05-10T03:40:30;121.75;;;60.70;;
22715;SDS011;11525;51.152;4.456;2023-05-10T03:42:57;112.15;;;56.65;;
22715;SDS011;11525;51.152;4.456;2023-05-10T03:45:23;107.03;;;55.72;;
22715;SDS011;11525;51.152;4.456;2023-05-10T03:47:49;93.40;;;50.55;;
22715;SDS011;11525;51.152;4.456;2023-05-10T03:50:15;85.72;;;44.65;;
22715;SDS011;11525;51.152;4.456;2023-05-10T03:52:41;76.10;;;40.53;;
22715;SDS011;11525;51.152;4.456;2023-05-10T03:55:06;70.90;;;37.88;;
22715;SDS011;11525;51.152;4.456;2023-05-10T03:57:33;66.05;;;35.45;;
22715;SDS011;11525;51.152;4.456;2023-05-10T03:59:59;62.75;;;33.15;;
22715;SDS011;11525;51.152;4.456;2023-05-10T04:02:25;53.85;;;27.00;;
22715;SDS011;11525;51.152;4.456;2023-05-10T04:04:50;55.75;;;31.27;;
22715;SDS011;11525;51.152;4.456;2023-05-10T04:07:16;57.00;;;30.25;;
22715;SDS011;11525;51.152;4.456;2023-05-10T04:09:49;57.95;;;30.10;;
22715;SDS011;11525;51.152;4.456;2023-05-10T04:12:15;52.17;;;29.38;;
22715;SDS011;11525;51.152;4.456;2023-05-10T04:14:40;59.15;;;31.13;;
22715;SDS011;11525;51.152;4.456;2023-05-10T04:17:06;54.58;;;30.33;;
22715;SDS011;11525;51.152;4.456;2023-05-10T04:19:31;55.45;;;25.80;;
22715;SDS011;11525;51.152;4.456;2023-05-10T04:21:58;54.60;;;26.65;;
22715;SDS011;11525;51.152;4.456;2023-05-10T04:24:24;51.05;;;29.75;;
22715;SDS011;11525;51.152;4.456;2023-05-10T04:26:49;55.72;;;30.25;;
22715;SDS011;11525;51.152;4.456;2023-05-10T04:29:15;52.78;;;25.83;;
22715;SDS011;11525;51.152;4.456;2023-05-10T04:31:41;55.72;;;29.77;;
22715;SDS011;11525;51.152;4.456;2023-05-10T04:34:07;57.33;;;30.85;;
22715;SDS011;11525;51.152;4.456;2023-05-10T04:36:33;57.58;;;33.63;;
22715;SDS011;11525;51.152;4.456;2023-05-10T04:39:00;60.65;;;34.30;;
22715;SDS011;11525;51.152;4.456;2023-05-10T04:41:28;63.15;;;35.60;;
22715;SDS011;11525;51.152;4.456;2023-05-10T04:43:53;61.67;;;35.05;;
22715;SDS011;11525;51.152;4.456;2023-05-10T04:46:19;64.97;;;34.72;;
22715;SDS011;11525;51.152;4.456;2023-05-10T04:48:45;57.65;;;29.48;;
22715;SDS011;11525;51.152;4.456;2023-05-10T04:51:11;60.35;;;30.25;;
22715;SDS011;11525;51.152;4.456;2023-05-10T04:53:37;60.47;;;29.10;;
22715;SDS011;11525;51.152;4.456;2023-05-10T04:56:03;57.85;;;30.42;;
22715;SDS011;11525;51.152;4.456;2023-05-10T04:58:29;58.05;;;28.45;;
22715;SDS011;11525;51.152;4.456;2023-05-10T05:00:54;63.83;;;33.38;;
22715;SDS011;11525;51.152;4.456;2023-05-10T05:03:20;63.03;;;34.78;;
22715;SDS011;11525;51.152;4.456;2023-05-10T05:05:47;64.97;;;35.58;;
22715;SDS011;11525;51.152;4.456;2023-05-10T05:08:13;57.90;;;28.63;;
22715;SDS011;11525;51.152;4.456;2023-05-10T05:10:38;59.58;;;30.67;;
22715;SDS011;11525;51.152;4.456;2023-05-10T05:13:04;60.50;;;28.92;;
22715;SDS011;11525;51.152;4.456;2023-05-10T05:15:30;70.40;;;30.65;;
22715;SDS011;11525;51.152;4.456;2023-05-10T05:17:56;60.20;;;31.98;;
22715;SDS011;11525;51.152;4.456;2023-05-10T05:20:22;59.63;;;30.52;;
22715;SDS011;11525;51.152;4.456;2023-05-10T05:22:47;59.45;;;29.88;;
22715;SDS011;11525;51.152;4.456;2023-05-10T05:25:13;56.38;;;29.33;;
22715;SDS011;11525;51.152;4.456;2023-05-10T05:27:40;57.88;;;29.60;;
22715;SDS011;11525;51.152;4.456;2023-05-10T05:30:06;60.70;;;31.83;;
22715;SDS011;11525;51.152;4.456;2023-05-10T05:32:32;68.53;;;33.30;;
22715;SDS011;11525;51.152;4.456;2023-05-10T05:34:58;65.95;;;34.03;;
22715;SDS011;11525;51.152;4.456;2023-05-10T05:37:24;69.40;;;36.03;;
22715;SDS011;11525;51.152;4.456;2023-05-10T05:39:50;72.88;;;37.17;;
22715;SDS011;11525;51.152;4.456;2023-05-10T05:42:15;76.28;;;37.92;;
22715;SDS011;11525;51.152;4.456;2023-05-10T05:44:43;77.78;;;37.35;;
22715;SDS011;11525;51.152;4.456;2023-05-10T05:47:09;70.45;;;37.35;;
22715;SDS011;11525;51.152;4.456;2023-05-10T05:49:35;79.25;;;39.33;;
22715;SDS011;11525;51.152;4.456;2023-05-10T05:52:01;72.85;;;38.05;;
22715;SDS011;11525;51.152;4.456;2023-05-10T05:54:28;73.18;;;39.30;;
22715;SDS011;11525;51.152;4.456;2023-05-10T05:56:55;70.70;;;36.38;;
22715;SDS011;11525;51.152;4.456;2023-05-10T05:59:21;67.78;;;37.42;;
22715;SDS011;11525;51.152;4.456;2023-05-10T06:01:48;65.60;;;35.90;;
22715;SDS011;11525;51.152;4.456;2023-05-10T06:04:14;65.60;;;37.55;;
22715;SDS011;11525;51.152;4.456;2023-05-10T06:06:40;64.68;;;35.72;;
22715;SDS011;11525;51.152;4.456;2023-05-10T06:09:07;66.72;;;36.08;;
22715;SDS011;11525;51.152;4.456;2023-05-10T06:11:33;56.55;;;33.45;;
22715;SDS011;11525;51.152;4.456;2023-05-10T06:13:59;61.42;;;33.80;;
22715;SDS011;11525;51.152;4.456;2023-05-10T06:16:26;59.53;;;34.42;;
22715;SDS011;11525;51.152;4.456;2023-05-10T06:18:52;50.33;;;30.92;;
22715;SDS011;11525;51.152;4.456;2023-05-10T06:21:17;54.33;;;31.58;;
22715;SDS011;11525;51.152;4.456;2023-05-10T06:23:43;48.05;;;29.35;;
22715;SDS011;11525;51.152;4.456;2023-05-10T06:26:09;44.58;;;28.25;;
22715;SDS011;11525;51.152;4.456;2023-05-10T06:28:35;48.88;;;28.00;;
22715;SDS011;11525;51.152;4.456;2023-05-10T06:31:03;46.45;;;27.98;;
22715;SDS011;11525;51.152;4.456;2023-05-10T06:33:29;44.85;;;27.92;;
22715;SDS011;11525;51.152;4.456;2023-05-10T06:35:55;44.13;;;26.98;;
22715;SDS011;11525;51.152;4.456;2023-05-10T06:38:20;44.15;;;28.38;;
22715;SDS011;11525;51.152;4.456;2023-05-10T06:40:46;42.50;;;25.73;;
22715;SDS011;11525;51.152;4.456;2023-05-10T06:43:12;38.85;;;24.85;;
22715;SDS011;11525;51.152;4.456;2023-05-10T06:45:38;47.10;;;27.73;;
22715;SDS011;11525;51.152;4.456;2023-05-10T06:48:03;42.58;;;27.55;;
22715;SDS011;11525;51.152;4.456;2023-05-10T06:50:29;40.97;;;24.85;;
22715;SDS011;11525;51.152;4.456;2023-05-10T06:52:55;33.60;;;23.90;;
22715;SDS011;11525;51.152;4.456;2023-05-10T06:55:21;38.13;;;23.17;;
22715;SDS011;11525;51.152;4.456;2023-05-10T06:57:46;36.92;;;23.85;;
22715;SDS011;11525;51.152;4.456;2023-05-10T07:00:13;42.08;;;25.10;;
22715;SDS011;11525;51.152;4.456;2023-05-10T07:02:39;39.35;;;26.13;;
22715;SDS011;11525;51.152;4.456;2023-05-10T07:05:05;40.08;;;23.92;;
22715;SDS011;11525;51.152;4.456;2023-05-10T07:07:31;38.83;;;25.92;;
22715;SDS011;11525;51.152;4.456;2023-05-10T07:09:57;46.58;;;26.20;;
22715;SDS011;11525;51.152;4.456;2023-05-10T07:12:23;45.83;;;25.52;;
22715;SDS011;11525;51.152;4.456;2023-05-10T07:14:49;44.90;;;25.30;;
22715;SDS011;11525;51.152;4.456;2023-05-10T07:17:14;43.45;;;27.00;;
22715;SDS011;11525;51.152;4.456;2023-05-10T07:19:40;40.95;;;25.90;;
22715;SDS011;11525;51.152;4.456;2023-05-10T07:22:06;39.40;;;26.38;;
22715;SDS011;11525;51.152;4.456;2023-05-10T07:24:33;40.20;;;27.98;;
22715;SDS011;11525;51.152;4.456;2023-05-10T07:26:59;45.47;;;28.75;;
22715;SDS011;11525;51.152;4.456;2023-05-10T07:29:24;44.83;;;28.05;;
22715;SDS011;11525;51.152;4.456;2023-05-10T07:31:50;43.40;;;26.88;;
22715;SDS011;11525;51.152;4.456;2023-05-10T07:34:16;37.85;;;25.52;;
22715;SDS011;11525;51.152;4.456;2023-05-10T07:36:42;31.60;;;21.70;;
22715;SDS011;11525;51.152;4.456;2023-05-10T07:39:07;29.30;;;22.08;;
22715;SDS011;11525;51.152;4.456;2023-05-10T07:41:33;29.60;;;22.10;;
22715;SDS011;11525;51.152;4.456;2023-05-10T07:43:59;33.20;;;23.38;;
22715;SDS011;11525;51.152;4.456;2023-05-10T07:46:25;24.73;;;21.60;;
22715;SDS011;11525;51.152;4.456;2023-05-10T07:48:50;31.00;;;22.85;;
22715;SDS011;11525;51.152;4.456;2023-05-10T07:51:16;27.08;;;20.02;;
22715;SDS011;11525;51.152;4.456;2023-05-10T07:53:42;29.88;;;21.52;;
22715;SDS011;11525;51.152;4.456;2023-05-10T07:56:26;28.40;;;19.83;;
22715;SDS011;11525;51.152;4.456;2023-05-10T07:59:00;27.40;;;20.15;;
22715;SDS011;11525;51.152;4.456;2023-05-10T08:01:32;27.83;;;18.98;;
22715;SDS011;11525;51.152;4.456;2023-05-10T08:03:58;26.77;;;20.17;;
22715;SDS011;11525;51.152;4.456;2023-05-10T08:06:25;27.98;;;20.27;;
22715;SDS011;11525;51.152;4.456;2023-05-10T08:08:54;32.83;;;23.15;;
22715;SDS011;11525;51.152;4.456;2023-05-10T08:11:21;30.42;;;20.05;;
22715;SDS011;11525;51.152;4.456;2023-05-10T08:13:47;29.20;;;20.90;;
22715;SDS011;11525;51.152;4.456;2023-05-10T08:16:14;23.75;;;18.08;;
22715;SDS011;11525;51.152;4.456;2023-05-10T08:18:40;22.60;;;16.75;;
22715;SDS011;11525;51.152;4.456;2023-05-10T08:21:06;27.55;;;17.75;;
22715;SDS011;11525;51.152;4.456;2023-05-10T08:23:32;27.65;;;15.82;;
22715;SDS011;11525;51.152;4.456;2023-05-10T08:25:58;32.42;;;17.80;;
22715;SDS011;11525;51.152;4.456;2023-05-10T08:28:24;24.98;;;16.90;;
22715;SDS011;11525;51.152;4.456;2023-05-10T08:30:50;23.17;;;16.77;;
22715;SDS011;11525;51.152;4.456;2023-05-10T08:33:17;19.35;;;15.75;;
22715;SDS011;11525;51.152;4.456;2023-05-10T08:35:43;20.23;;;15.90;;
22715;SDS011;11525;51.152;4.456;2023-05-10T08:38:09;22.83;;;16.50;;
22715;SDS011;11525;51.152;4.456;2023-05-10T08:40:36;53.45;;;19.55;;
22715;SDS011;11525;51.152;4.456;2023-05-10T08:45:32;26.50;;;19.80;;
22715;SDS011;11525;51.152;4.456;2023-05-10T08:48:01;24.52;;;19.95;;
22715;SDS011;11525;51.152;4.456;2023-05-10T08:50:30;31.50;;;20.65;;
22715;SDS011;11525;51.152;4.456;2023-05-10T08:52:57;26.42;;;18.65;;
22715;SDS011;11525;51.152;4.456;2023-05-10T08:55:25;21.10;;;17.48;;
22715;SDS011;11525;51.152;4.456;2023-05-10T08:57:51;24.70;;;17.77;;
22715;SDS011;11525;51.152;4.456;2023-05-10T09:00:18;25.65;;;17.50;;
22715;SDS011;11525;51.152;4.456;2023-05-10T09:02:44;25.33;;;18.25;;
22715;SDS011;11525;51.152;4.456;2023-05-10T09:05:12;21.90;;;16.10;;
22715;SDS011;11525;51.152;4.456;2023-05-10T09:07:40;22.50;;;15.60;;
22715;SDS011;11525;51.152;4.456;2023-05-10T09:10:06;20.65;;;15.48;;
22715;SDS011;11525;51.152;4.456;2023-05-10T09:12:33;21.40;;;15.35;;
22715;SDS011;11525;51.152;4.456;2023-05-10T09:15:00;22.30;;;15.80;;
22715;SDS011;11525;51.152;4.456;2023-05-10T09:17:28;20.95;;;14.48;;
22715;SDS011;11525;51.152;4.456;2023-05-10T09:19:58;19.95;;;14.77;;
22715;SDS011;11525;51.152;4.456;2023-05-10T09:22:29;19.48;;;15.25;;
22715;SDS011;11525;51.152;4.456;2023-05-10T09:25:08;20.65;;;14.57;;
22715;SDS011;11525;51.152;4.456;2023-05-10T09:27:36;20.13;;;14.93;;
22715;SDS011;11525;51.152;4.456;2023-05-10T09:30:03;23.42;;;14.65;;
22715;SDS011;11525;51.152;4.456;2023-05-10T09:32:40;20.90;;;14.48;;
22715;SDS011;11525;51.152;4.456;2023-05-10T09:35:13;28.17;;;15.65;;
22715;SDS011;11525;51.152;4.456;2023-05-10T09:37:44;25.23;;;15.20;;
22715;SDS011;11525;51.152;4.456;2023-05-10T09:40:16;23.92;;;15.07;;
22715;SDS011;11525;51.152;4.456;2023-05-10T09:45:20;21.75;;;14.98;;
22715;SDS011;11525;51.152;4.456;2023-05-10T09:47:46;26.52;;;15.10;;
22715;SDS011;11525;51.152;4.456;2023-05-10T09:50:13;25.58;;;13.95;;
22715;SDS011;11525;51.152;4.456;2023-05-10T09:55:38;20.25;;;12.93;;
22715;SDS011;11525;51.152;4.456;2023-05-10T09:58:05;24.15;;;13.23;;
22715;SDS011;11525;51.152;4.456;2023-05-10T10:00:39;21.67;;;12.95;;
22715;SDS011;11525;51.152;4.456;2023-05-10T10:03:06;29.52;;;12.63;;
22715;SDS011;11525;51.152;4.456;2023-05-10T10:05:39;24.48;;;13.77;;
22715;SDS011;11525;51.152;4.456;2023-05-10T10:08:07;20.92;;;12.68;;
22715;SDS011;11525;51.152;4.456;2023-05-10T10:10:33;25.83;;;12.82;;
22715;SDS011;11525;51.152;4.456;2023-05-10T10:12:59;24.08;;;12.48;;
22715;SDS011;11525;51.152;4.456;2023-05-10T10:15:26;23.60;;;12.57;;
22715;SDS011;11525;51.152;4.456;2023-05-10T10:17:52;16.73;;;11.55;;
22715;SDS011;11525;51.152;4.456;2023-05-10T10:20:19;16.73;;;11.00;;
22715;SDS011;11525;51.152;4.456;2023-05-10T10:22:47;18.83;;;11.57;;
22715;SDS011;11525;51.152;4.456;2023-05-10T10:25:14;20.30;;;11.75;;
22715;SDS011;11525;51.152;4.456;2023-05-10T10:35:38;18.83;;;12.45;;
22715;SDS011;11525;51.152;4.456;2023-05-10T10:38:05;19.52;;;11.52;;
22715;SDS011;11525;51.152;4.456;2023-05-10T10:40:33;18.10;;;11.73;;
22715;SDS011;11525;51.152;4.456;2023-05-10T10:48:47;16.73;;;11.15;;
22715;SDS011;11525;51.152;4.456;2023-05-10T10:51:17;17.88;;;12.15;;
22715;SDS011;11525;51.152;4.456;2023-05-10T10:53:43;16.48;;;11.93;;
22715;SDS011;11525;51.152;4.456;2023-05-10T10:56:12;17.13;;;12.07;;
22715;SDS011;11525;51.152;4.456;2023-05-10T10:58:40;15.10;;;11.20;;
22715;SDS011;11525;51.152;4.456;2023-05-10T11:03:36;14.63;;;11.73;;
22715;SDS011;11525;51.152;4.456;2023-05-10T11:06:02;19.13;;;10.80;;
22715;SDS011;11525;51.152;4.456;2023-05-10T11:08:28;14.80;;;10.68;;
22715;SDS011;11525;51.152;4.456;2023-05-10T11:13:27;14.65;;;10.13;;
22715;SDS011;11525;51.152;4.456;2023-05-10T11:15:54;14.35;;;10.48;;
22715;SDS011;11525;51.152;4.456;2023-05-10T11:18:29;16.77;;;12.05;;
22715;SDS011;11525;51.152;4.456;2023-05-10T11:20:59;15.82;;;10.95;;
22715;SDS011;11525;51.152;4.456;2023-05-10T11:26:08;16.20;;;11.80;;
22715;SDS011;11525;51.152;4.456;2023-05-10T11:28:34;15.45;;;11.73;;
22715;SDS011;11525;51.152;4.456;2023-05-10T11:31:06;17.23;;;11.05;;
22715;SDS011;11525;51.152;4.456;2023-05-10T11:33:41;14.48;;;10.27;;
22715;SDS011;11525;51.152;4.456;2023-05-10T11:36:12;14.90;;;11.13;;
22715;SDS011;11525;51.152;4.456;2023-05-10T11:38:42;17.02;;;11.52;;
22715;SDS011;11525;51.152;4.456;2023-05-10T11:41:08;15.02;;;10.70;;
22715;SDS011;11525;51.152;4.456;2023-05-10T11:43:36;21.88;;;11.02;;
22715;SDS011;11525;51.152;4.456;2023-05-10T11:46:04;14.57;;;10.25;;
22715;SDS011;11525;51.152;4.456;2023-05-10T11:48:31;17.98;;;11.50;;
22715;SDS011;11525;51.152;4.456;2023-05-10T11:50:56;16.25;;;10.52;;
22715;SDS011;11525;51.152;4.456;2023-05-10T11:53:23;17.55;;;10.80;;
22715;SDS011;11525;51.152;4.456;2023-05-10T11:55:50;14.57;;;10.38;;
22715;SDS011;11525;51.152;4.456;2023-05-10T11:58:17;18.10;;;10.40;;
22715;SDS011;11525;51.152;4.456;2023-05-10T12:00:44;14.85;;;9.52;;
22715;SDS011;11525;51.152;4.456;2023-05-10T12:03:10;15.70;;;10.18;;
22715;SDS011;11525;51.152;4.456;2023-05-10T12:05:36;13.00;;;9.25;;
22715;SDS011;11525;51.152;4.456;2023-05-10T12:08:12;12.93;;;9.27;;
22715;SDS011;11525;51.152;4.456;2023-05-10T12:10:39;16.15;;;9.57;;
22715;SDS011;11525;51.152;4.456;2023-05-10T12:13:04;13.88;;;9.90;;
22715;SDS011;11525;51.152;4.456;2023-05-10T12:15:32;15.80;;;9.77;;
22715;SDS011;11525;51.152;4.456;2023-05-10T12:17:57;15.13;;;10.13;;
22715;SDS011;11525;51.152;4.456;2023-05-10T12:20:23;14.38;;;10.63;;
22715;SDS011;11525;51.152;4.456;2023-05-10T12:22:53;13.63;;;10.40;;
22715;SDS011;11525;51.152;4.456;2023-05-10T12:25:21;13.35;;;10.20;;
22715;SDS011;11525;51.152;4.456;2023-05-10T12:27:48;16.20;;;10.10;;
22715;SDS011;11525;51.152;4.456;2023-05-10T12:32:47;13.15;;;10.45;;
22715;SDS011;11525;51.152;4.456;2023-05-10T12:35:13;17.60;;;11.05;;
22715;SDS011;11525;51.152;4.456;2023-05-10T12:37:40;13.93;;;9.95;;
22715;SDS011;11525;51.152;4.456;2023-05-10T12:40:07;16.42;;;11.10;;
22715;SDS011;11525;51.152;4.456;2023-05-10T12:42:35;14.65;;;11.18;;
22715;SDS011;11525;51.152;4.456;2023-05-10T12:45:01;16.63;;;11.00;;
22715;SDS011;11525;51.152;4.456;2023-05-10T12:47:27;19.67;;;12.10;;
22715;SDS011;11525;51.152;4.456;2023-05-10T12:49:53;16.52;;;10.48;;
22715;SDS011;11525;51.152;4.456;2023-05-10T12:52:19;17.98;;;11.68;;
22715;SDS011;11525;51.152;4.456;2023-05-10T12:54:45;14.68;;;11.00;;
22715;SDS011;11525;51.152;4.456;2023-05-10T12:57:11;18.77;;;10.90;;
22715;SDS011;11525;51.152;4.456;2023-05-10T12:59:37;19.83;;;11.85;;
22715;SDS011;11525;51.152;4.456;2023-05-10T13:02:03;16.48;;;11.63;;
22715;SDS011;11525;51.152;4.456;2023-05-10T13:04:28;14.70;;;10.52;;
22715;SDS011;11525;51.152;4.456;2023-05-10T13:06:54;17.17;;;11.45;;
22715;SDS011;11525;51.152;4.456;2023-05-10T13:09:26;19.77;;;11.13;;
22715;SDS011;11525;51.152;4.456;2023-05-10T13:11:54;16.75;;;11.30;;
22715;SDS011;11525;51.152;4.456;2023-05-10T13:14:20;15.10;;;10.65;;
22715;SDS011;11525;51.152;4.456;2023-05-10T13:16:46;15.45;;;11.90;;
22715;SDS011;11525;51.152;4.456;2023-05-10T13:19:12;15.88;;;10.80;;
22715;SDS011;11525;51.152;4.456;2023-05-10T13:21:38;17.83;;;10.75;;
22715;SDS011;11525;51.152;4.456;2023-05-10T13:24:06;13.77;;;9.90;;
22715;SDS011;11525;51.152;4.456;2023-05-10T13:26:32;17.05;;;10.35;;
22715;SDS011;11525;51.152;4.456;2023-05-10T13:28:57;16.63;;;10.20;;
22715;SDS011;11525;51.152;4.456;2023-05-10T13:31:23;13.70;;;9.00;;
22715;SDS011;11525;51.152;4.456;2023-05-10T13:33:49;12.50;;;10.68;;
22715;SDS011;11525;51.152;4.456;2023-05-10T13:36:15;13.18;;;9.20;;
22715;SDS011;11525;51.152;4.456;2023-05-10T13:38:40;13.98;;;10.00;;
22715;SDS011;11525;51.152;4.456;2023-05-10T13:41:06;13.32;;;9.75;;
22715;SDS011;11525;51.152;4.456;2023-05-10T13:43:32;17.60;;;10.65;;
22715;SDS011;11525;51.152;4.456;2023-05-10T13:45:58;14.73;;;10.68;;
22715;SDS011;11525;51.152;4.456;2023-05-10T13:48:23;14.80;;;9.57;;
22715;SDS011;11525;51.152;4.456;2023-05-10T13:50:49;18.00;;;10.77;;
22715;SDS011;11525;51.152;4.456;2023-05-10T13:53:15;14.70;;;10.25;;
22715;SDS011;11525;51.152;4.456;2023-05-10T13:55:40;14.70;;;11.15;;
22715;SDS011;11525;51.152;4.456;2023-05-10T13:58:06;15.02;;;10.45;;
22715;SDS011;11525;51.152;4.456;2023-05-10T14:00:32;16.35;;;10.82;;
22715;SDS011;11525;51.152;4.456;2023-05-10T14:02:57;15.18;;;10.63;;
22715;SDS011;11525;51.152;4.456;2023-05-10T14:05:24;15.45;;;10.57;;
22715;SDS011;11525;51.152;4.456;2023-05-10T14:07:50;16.27;;;11.25;;
22715;SDS011;11525;51.152;4.456;2023-05-10T14:10:16;17.13;;;12.20;;
22715;SDS011;11525;51.152;4.456;2023-05-10T14:12:41;16.95;;;11.13;;
22715;SDS011;11525;51.152;4.456;2023-05-10T14:15:07;19.00;;;11.18;;
22715;SDS011;11525;51.152;4.456;2023-05-10T14:17:35;16.25;;;10.98;;
22715;SDS011;11525;51.152;4.456;2023-05-10T14:20:01;20.70;;;12.57;;
22715;SDS011;11525;51.152;4.456;2023-05-10T14:22:27;17.70;;;12.57;;
22715;SDS011;11525;51.152;4.456;2023-05-10T14:24:53;15.70;;;11.55;;
22715;SDS011;11525;51.152;4.456;2023-05-10T14:27:18;16.90;;;12.23;;
22715;SDS011;11525;51.152;4.456;2023-05-10T14:29:44;19.13;;;12.48;;
22715;SDS011;11525;51.152;4.456;2023-05-10T14:32:10;17.05;;;12.43;;
22715;SDS011;11525;51.152;4.456;2023-05-10T14:34:35;19.88;;;12.65;;
22715;SDS011;11525;51.152;4.456;2023-05-10T14:37:01;15.50;;;12.25;;
22715;SDS011;11525;51.152;4.456;2023-05-10T14:39:27;19.85;;;12.55;;
22715;SDS011;11525;51.152;4.456;2023-05-10T14:41:55;17.83;;;13.82;;
22715;SDS011;11525;51.152;4.456;2023-05-10T14:44:20;19.40;;;12.93;;
22715;SDS011;11525;51.152;4.456;2023-05-10T14:46:46;13.65;;;10.45;;
22715;SDS011;11525;51.152;4.456;2023-05-10T14:49:13;18.20;;;13.23;;
22715;SDS011;11525;51.152;4.456;2023-05-10T14:51:39;18.55;;;12.20;;
22715;SDS011;11525;51.152;4.456;2023-05-10T14:54:04;20.38;;;13.52;;
22715;SDS011;11525;51.152;4.456;2023-05-10T14:56:31;17.52;;;14.45;;
22715;SDS011;11525;51.152;4.456;2023-05-10T14:58:56;21.83;;;14.10;;
22715;SDS011;11525;51.152;4.456;2023-05-10T15:01:22;21.30;;;15.30;;
22715;SDS011;11525;51.152;4.456;2023-05-10T15:03:48;15.43;;;12.25;;
22715;SDS011;11525;51.152;4.456;2023-05-10T15:06:14;11.48;;;7.72;;
22715;SDS011;11525;51.152;4.456;2023-05-10T15:08:43;4.05;;;3.65;;